createdAt,value
2019-01-25T00:00:16.996Z,65.68
2019-01-25T00:01:16.983Z,65.81
2019-01-25T00:02:16.966Z,66.03
2019-01-25T00:03:16.968Z,66.10
2019-01-25T00:04:16.961Z,65.92
2019-01-25T00:05:16.959Z,65.89
2019-01-25T00:06:16.938Z,66.20
2019-01-25T00:07:16.917Z,66.31
2019-01-25T00:08:16.907Z,66.24
2019-01-25T00:09:16.917Z,65.89
2019-01-25T00:10:16.909Z,66.00
2019-01-25T00:11:16.885Z,65.78
2019-01-25T00:12:16.896Z,65.68
2019-01-25T00:13:16.858Z,65.68
2019-01-25T00:14:16.844Z,65.92
2019-01-25T00:15:16.856Z,65.89
2019-01-25T00:16:16.822Z,65.78
2019-01-25T00:17:16.882Z,65.78
2019-01-25T00:18:16.803Z,65.58
2019-01-25T00:19:16.790Z,65.47
2019-01-25T00:20:16.797Z,66.20
2019-01-25T00:21:16.770Z,66.13
2019-01-25T00:22:16.769Z,65.71
2019-01-25T00:23:16.753Z,65.81
2019-01-25T00:24:16.745Z,65.78
2019-01-25T00:25:16.743Z,65.78
2019-01-25T00:26:16.723Z,65.81
2019-01-25T00:27:16.710Z,66.03
2019-01-25T00:28:16.699Z,65.81
2019-01-25T00:29:16.684Z,65.92
2019-01-25T00:30:16.701Z,65.71
2019-01-25T00:31:16.663Z,65.68
2019-01-25T00:32:16.669Z,65.78
2019-01-25T00:33:16.643Z,65.61
2019-01-25T00:34:16.634Z,65.89
2019-01-25T00:35:16.643Z,65.89
2019-01-25T00:36:16.632Z,65.78
2019-01-25T00:37:16.605Z,65.47
2019-01-25T00:38:16.600Z,65.26
2019-01-25T00:39:16.580Z,65.26
2019-01-25T00:40:16.585Z,65.05
2019-01-25T00:41:16.591Z,64.95
2019-01-25T00:42:16.548Z,64.63
2019-01-25T00:43:16.543Z,64.95
2019-01-25T00:44:16.544Z,65.47
2019-01-25T00:45:16.564Z,64.53
2019-01-25T00:46:16.513Z,65.26
2019-01-25T00:47:16.538Z,64.73
2019-01-25T00:48:16.487Z,64.42
2019-01-25T00:49:16.480Z,64.73
2019-01-25T00:50:16.480Z,64.95
2019-01-25T00:51:16.465Z,64.95
2019-01-25T00:52:16.475Z,64.95
2019-01-25T00:53:16.428Z,65.26
2019-01-25T00:54:16.421Z,65.47
2019-01-25T00:55:16.425Z,65.58
2019-01-25T00:56:16.407Z,64.53
2019-01-25T00:57:16.391Z,65.05
2019-01-25T00:58:16.382Z,64.84
2019-01-25T00:59:16.365Z,65.26
2019-01-25T01:00:16.378Z,65.23
2019-01-25T01:01:16.350Z,65.26
2019-01-25T01:02:16.347Z,65.26
2019-01-25T01:03:16.329Z,64.84
2019-01-25T01:04:16.323Z,64.95
2019-01-25T01:05:16.343Z,65.05
2019-01-25T01:06:16.295Z,65.23
2019-01-25T01:07:16.292Z,64.42
2019-01-25T01:08:16.287Z,64.31
2019-01-25T01:09:16.299Z,64.63
2019-01-25T01:10:16.270Z,64.53
2019-01-25T01:11:16.242Z,64.73
2019-01-25T01:12:16.232Z,64.73
2019-01-25T01:13:16.279Z,64.31
2019-01-25T01:14:16.292Z,64.95
2019-01-25T01:15:16.221Z,64.95
2019-01-25T01:16:16.192Z,65.26
2019-01-25T01:17:16.176Z,65.19
2019-01-25T01:18:16.171Z,65.05
2019-01-25T01:19:16.209Z,65.61
2019-01-25T01:20:16.167Z,65.29
2019-01-25T01:21:16.206Z,65.37
2019-01-25T01:22:16.129Z,65.92
2019-01-25T01:23:16.120Z,65.71
2019-01-25T01:24:16.131Z,65.81
2019-01-25T01:25:16.120Z,65.50
2019-01-25T01:26:16.088Z,65.71
2019-01-25T01:27:16.072Z,65.92
2019-01-25T01:28:16.058Z,65.71
2019-01-25T01:29:16.050Z,65.89
2019-01-25T01:30:16.077Z,65.39
2019-01-25T01:31:16.038Z,66.24
2019-01-25T01:32:16.029Z,65.47
2019-01-25T01:33:16.013Z,65.39
2019-01-25T01:34:15.993Z,65.50
2019-01-25T01:35:16.000Z,65.68
2019-01-25T01:36:15.976Z,65.37
2019-01-25T01:37:15.967Z,65.26
2019-01-25T01:38:15.962Z,65.50
2019-01-25T01:39:15.962Z,65.26
2019-01-25T01:40:21.817Z,65.26
2019-01-25T01:41:16.924Z,64.53
2019-01-25T01:42:15.917Z,65.05
2019-01-25T01:43:15.904Z,65.05
2019-01-25T01:44:15.901Z,65.47
2019-01-25T01:45:15.929Z,65.19
2019-01-25T01:46:15.902Z,65.05
2019-01-25T01:47:17.383Z,65.26
2019-01-25T01:48:15.849Z,65.58
2019-01-25T01:49:15.842Z,65.37
2019-01-25T01:50:15.858Z,65.58
2019-01-25T01:51:15.832Z,65.19
2019-01-25T01:52:15.814Z,65.05
2019-01-25T01:53:15.793Z,64.87
2019-01-25T01:54:15.789Z,65.19
2019-01-25T01:55:15.850Z,65.29
2019-01-25T01:56:15.773Z,65.39
2019-01-25T01:57:15.779Z,65.50
2019-01-25T01:58:15.744Z,65.61
2019-01-25T01:59:15.732Z,66.24
2019-01-25T02:00:15.729Z,66.24
2019-01-25T02:01:15.728Z,65.89
2019-01-25T02:02:15.702Z,66.10
2019-01-25T02:03:15.696Z,65.39
2019-01-25T02:04:15.682Z,65.68
2019-01-25T02:05:15.670Z,65.89
2019-01-25T02:06:15.674Z,65.37
2019-01-25T02:07:15.649Z,65.47
2019-01-25T02:08:15.641Z,65.05
2019-01-25T02:09:15.644Z,65.37
2019-01-25T02:10:15.614Z,64.84
2019-01-25T02:11:15.613Z,65.05
2019-01-25T02:12:15.597Z,65.05
2019-01-25T02:13:15.604Z,65.05
2019-01-25T02:14:15.576Z,65.16
2019-01-25T02:15:15.572Z,65.58
2019-01-25T02:16:15.585Z,65.26
2019-01-25T02:17:15.552Z,65.37
2019-01-25T02:18:15.557Z,65.47
2019-01-25T02:19:15.526Z,65.16
2019-01-25T02:20:15.516Z,64.95
2019-01-25T02:21:15.549Z,65.37
2019-01-25T02:22:15.568Z,65.37
2019-01-25T02:23:15.486Z,65.58
2019-01-25T02:24:15.474Z,66.20
2019-01-25T02:25:15.454Z,65.47
2019-01-25T02:26:15.458Z,65.16
2019-01-25T02:27:15.445Z,65.16
2019-01-25T02:28:15.421Z,65.26
2019-01-25T02:29:15.422Z,65.05
2019-01-25T02:30:15.421Z,65.16
2019-01-25T02:31:15.418Z,65.47
2019-01-25T02:32:15.393Z,65.37
2019-01-25T02:33:15.387Z,65.58
2019-01-25T02:34:15.369Z,65.05
2019-01-25T02:35:24.786Z,65.26
2019-01-25T02:36:15.368Z,65.16
2019-01-25T02:37:24.834Z,65.05
2019-01-25T02:38:15.317Z,65.05
2019-01-25T02:39:15.301Z,65.61
2019-01-25T02:40:15.294Z,65.61
2019-01-25T02:41:15.315Z,65.92
2019-01-25T02:42:15.276Z,66.13
2019-01-25T02:43:15.285Z,66.66
2019-01-25T02:44:15.298Z,66.66
2019-01-25T02:45:15.288Z,66.55
2019-01-25T02:46:15.323Z,66.13
2019-01-25T02:47:24.299Z,66.24
2019-01-25T02:48:15.205Z,66.55
2019-01-25T02:49:15.193Z,66.73
2019-01-25T02:50:15.184Z,66.45
2019-01-25T02:51:15.182Z,66.13
2019-01-25T02:52:15.163Z,66.24
2019-01-25T02:53:15.150Z,66.34
2019-01-25T02:54:15.143Z,66.03
2019-01-25T02:55:15.129Z,66.42
2019-01-25T02:56:15.132Z,66.20
2019-01-25T02:57:15.112Z,65.78
2019-01-25T02:58:15.099Z,66.00
2019-01-25T02:59:15.087Z,66.10
2019-01-25T03:00:15.078Z,65.89
2019-01-25T03:01:15.080Z,65.47
2019-01-25T03:02:15.059Z,65.78
2019-01-25T03:03:15.053Z,65.68
2019-01-25T03:04:15.041Z,66.10
2019-01-25T03:05:15.035Z,66.10
2019-01-25T03:06:15.024Z,65.78
2019-01-25T03:07:15.004Z,65.58
2019-01-25T03:08:14.995Z,66.31
2019-01-25T03:09:14.984Z,66.42
2019-01-25T03:10:14.971Z,66.73
2019-01-25T03:11:14.975Z,66.42
2019-01-25T03:12:14.950Z,66.28
2019-01-25T03:13:14.942Z,66.31
2019-01-25T03:14:14.932Z,66.84
2019-01-25T03:15:14.918Z,66.52
2019-01-25T03:16:14.920Z,66.63
2019-01-25T03:17:14.897Z,66.42
2019-01-25T03:18:14.891Z,66.31
2019-01-25T03:19:14.877Z,65.89
2019-01-25T03:20:14.875Z,65.89
2019-01-25T03:21:14.874Z,66.63
2019-01-25T03:22:14.846Z,66.66
2019-01-25T03:23:14.833Z,66.66
2019-01-25T03:24:14.823Z,67.29
2019-01-25T03:25:14.814Z,67.08
2019-01-25T03:26:14.814Z,67.29
2019-01-25T03:27:14.792Z,67.18
2019-01-25T03:28:14.782Z,67.40
2019-01-25T03:29:14.780Z,67.29
2019-01-25T03:30:14.760Z,67.40
2019-01-25T03:31:14.765Z,67.08
2019-01-25T03:32:14.750Z,67.29
2019-01-25T03:33:14.731Z,67.40
2019-01-25T03:34:14.717Z,67.29
2019-01-25T03:35:14.706Z,67.50
2019-01-25T03:36:14.709Z,67.29
2019-01-25T03:37:14.685Z,67.40
2019-01-25T03:38:14.674Z,67.29
2019-01-25T03:39:14.664Z,67.29
2019-01-25T03:40:14.660Z,66.97
2019-01-25T03:41:14.675Z,67.82
2019-01-25T03:42:14.633Z,67.18
2019-01-25T03:43:14.625Z,67.40
2019-01-25T03:44:14.612Z,67.29
2019-01-25T03:45:14.601Z,67.05
2019-01-25T03:46:14.601Z,67.36
2019-01-25T03:47:14.579Z,66.94
2019-01-25T03:48:14.570Z,67.36
2019-01-25T03:49:14.563Z,67.05
2019-01-25T03:50:14.567Z,67.36
2019-01-25T03:51:14.550Z,67.15
2019-01-25T03:52:14.527Z,66.97
2019-01-25T03:53:14.517Z,67.15
2019-01-25T03:54:14.505Z,67.50
2019-01-25T03:55:14.495Z,67.08
2019-01-25T03:56:14.499Z,67.08
2019-01-25T03:57:14.474Z,67.08
2019-01-25T03:58:14.464Z,67.26
2019-01-25T03:59:14.454Z,67.40
2019-01-25T04:00:14.441Z,67.29
2019-01-25T04:01:14.449Z,67.29
2019-01-25T04:02:14.420Z,67.08
2019-01-25T04:03:14.409Z,67.29
2019-01-25T04:04:14.399Z,67.60
2019-01-25T04:05:14.389Z,67.50
2019-01-25T04:06:14.438Z,67.29
2019-01-25T04:07:23.859Z,67.18
2019-01-25T04:08:14.360Z,67.50
2019-01-25T04:09:14.385Z,67.29
2019-01-25T04:10:14.335Z,67.47
2019-01-25T04:11:14.340Z,67.60
2019-01-25T04:12:14.316Z,67.29
2019-01-25T04:13:14.304Z,67.29
2019-01-25T04:14:14.292Z,67.18
2019-01-25T04:15:23.384Z,67.29
2019-01-25T04:16:14.305Z,67.40
2019-01-25T04:17:14.266Z,67.29
2019-01-25T04:18:14.300Z,67.21
2019-01-25T04:19:14.252Z,67.08
2019-01-25T04:20:14.230Z,66.97
2019-01-25T04:21:14.222Z,66.76
2019-01-25T04:22:14.221Z,67.29
2019-01-25T04:23:14.198Z,67.18
2019-01-25T04:24:14.201Z,67.08
2019-01-25T04:25:14.199Z,67.50
2019-01-25T04:26:14.171Z,67.40
2019-01-25T04:27:14.174Z,67.26
2019-01-25T04:28:14.169Z,67.08
2019-01-25T04:29:14.138Z,67.26
2019-01-25T04:30:14.137Z,67.18
2019-01-25T04:31:14.115Z,67.29
2019-01-25T04:32:14.113Z,67.82
2019-01-25T04:33:14.095Z,67.60
2019-01-25T04:34:14.090Z,68.34
2019-01-25T04:35:14.073Z,67.18
2019-01-25T04:36:14.075Z,67.40
2019-01-25T04:37:14.075Z,67.08
2019-01-25T04:38:14.042Z,67.82
2019-01-25T04:39:14.030Z,66.97
2019-01-25T04:40:14.019Z,68.02
2019-01-25T04:41:14.013Z,68.13
2019-01-25T04:42:14.015Z,68.24
2019-01-25T04:43:13.991Z,68.44
2019-01-25T04:44:13.976Z,68.13
2019-01-25T04:45:13.971Z,67.92
2019-01-25T04:46:13.953Z,68.24
2019-01-25T04:47:13.957Z,68.13
2019-01-25T04:48:13.934Z,67.92
2019-01-25T04:49:13.924Z,67.99
2019-01-25T04:50:13.918Z,68.34
2019-01-25T04:51:13.902Z,68.52
2019-01-25T04:52:13.909Z,68.65
2019-01-25T04:53:13.886Z,68.65
2019-01-25T04:54:13.874Z,68.55
2019-01-25T04:55:13.867Z,68.44
2019-01-25T04:56:13.851Z,68.55
2019-01-25T04:57:13.856Z,69.07
2019-01-25T04:58:13.831Z,69.89
2019-01-25T04:59:13.824Z,69.71
2019-01-25T05:00:13.812Z,69.81
2019-01-25T05:01:13.806Z,70.02
2019-01-25T05:02:13.802Z,71.08
2019-01-25T05:03:13.777Z,71.04
2019-01-25T05:04:13.769Z,71.04
2019-01-25T05:05:13.758Z,71.18
2019-01-25T05:06:13.747Z,72.23
2019-01-25T05:07:13.746Z,72.02
2019-01-25T05:08:13.729Z,70.83
2019-01-25T05:09:13.711Z,71.15
2019-01-25T05:10:13.706Z,70.94
2019-01-25T05:11:19.744Z,70.31
2019-01-25T05:12:14.691Z,71.28
2019-01-25T05:13:13.677Z,71.15
2019-01-25T05:14:13.659Z,71.04
2019-01-25T05:15:13.653Z,71.50
2019-01-25T05:16:13.640Z,71.46
2019-01-25T05:17:13.640Z,72.30
2019-01-25T05:18:13.622Z,71.39
2019-01-25T05:19:13.615Z,71.81
2019-01-25T05:20:13.596Z,71.28
2019-01-25T05:21:13.586Z,72.02
2019-01-25T05:22:13.588Z,70.86
2019-01-25T05:23:13.574Z,71.25
2019-01-25T05:24:13.557Z,71.81
2019-01-25T05:25:13.546Z,71.91
2019-01-25T05:26:13.534Z,71.50
2019-01-25T05:27:13.532Z,71.81
2019-01-25T05:28:13.513Z,71.91
2019-01-25T05:29:13.509Z,72.33
2019-01-25T05:30:13.540Z,72.55
2019-01-25T05:31:13.480Z,72.55
2019-01-25T05:32:13.480Z,72.65
2019-01-25T05:33:13.457Z,72.44
2019-01-25T05:34:13.447Z,72.33
2019-01-25T05:35:13.444Z,71.91
2019-01-25T05:36:13.431Z,72.65
2019-01-25T05:37:13.427Z,72.65
2019-01-25T05:38:13.404Z,72.23
2019-01-25T05:39:13.398Z,72.55
2019-01-25T05:40:13.386Z,72.83
2019-01-25T05:41:13.377Z,72.51
2019-01-25T05:42:13.384Z,73.07
2019-01-25T05:43:13.353Z,72.93
2019-01-25T05:44:13.344Z,72.93
2019-01-25T05:45:13.334Z,72.51
2019-01-25T05:46:13.319Z,71.67
2019-01-25T05:47:13.371Z,72.55
2019-01-25T05:48:13.301Z,72.55
2019-01-25T05:49:13.367Z,72.44
2019-01-25T05:50:13.283Z,72.44
2019-01-25T05:51:13.269Z,72.33
2019-01-25T05:52:13.283Z,72.44
2019-01-25T05:53:13.261Z,72.13
2019-01-25T05:54:13.240Z,72.13
2019-01-25T05:55:13.230Z,72.62
2019-01-25T05:56:13.224Z,71.46
2019-01-25T05:57:13.227Z,72.09
2019-01-25T05:58:13.201Z,72.20
2019-01-25T05:59:13.195Z,72.30
2019-01-25T06:00:13.175Z,71.98
2019-01-25T06:01:13.162Z,71.88
2019-01-25T06:02:13.166Z,71.78
2019-01-25T06:03:13.143Z,71.67
2019-01-25T06:04:13.134Z,72.51
2019-01-25T06:05:13.125Z,72.41
2019-01-25T06:06:13.110Z,72.62
2019-01-25T06:07:13.113Z,72.41
2019-01-25T06:08:13.092Z,71.67
2019-01-25T06:09:13.080Z,72.62
2019-01-25T06:10:13.069Z,73.04
2019-01-25T06:11:13.065Z,73.14
2019-01-25T06:12:13.057Z,73.18
2019-01-25T06:13:13.035Z,72.97
2019-01-25T06:14:13.050Z,73.07
2019-01-25T06:15:13.023Z,73.57
2019-01-25T06:16:13.043Z,73.49
2019-01-25T06:17:13.016Z,73.18
2019-01-25T06:18:12.986Z,73.46
2019-01-25T06:19:12.984Z,73.35
2019-01-25T06:20:12.975Z,72.93
2019-01-25T06:21:12.958Z,73.14
2019-01-25T06:22:12.958Z,73.04
2019-01-25T06:23:12.945Z,73.25
2019-01-25T06:24:12.923Z,72.83
2019-01-25T06:25:12.930Z,72.62
2019-01-25T06:26:12.916Z,73.04
2019-01-25T06:27:12.913Z,72.72
2019-01-25T06:28:12.882Z,71.98
2019-01-25T06:29:12.873Z,72.30
2019-01-25T06:30:12.865Z,71.98
2019-01-25T06:31:12.852Z,71.78
2019-01-25T06:32:12.841Z,71.98
2019-01-25T06:33:12.849Z,71.98
2019-01-25T06:34:12.822Z,72.30
2019-01-25T06:35:12.807Z,72.09
2019-01-25T06:36:12.799Z,71.75
2019-01-25T06:37:12.786Z,71.98
2019-01-25T06:38:12.798Z,71.36
2019-01-25T06:39:12.769Z,71.01
2019-01-25T06:40:12.758Z,71.43
2019-01-25T06:41:12.756Z,71.67
2019-01-25T06:42:12.735Z,71.75
2019-01-25T06:43:12.788Z,70.69
2019-01-25T06:44:12.712Z,70.69
2019-01-25T06:45:12.711Z,70.94
2019-01-25T06:46:12.705Z,71.11
2019-01-25T06:47:12.681Z,71.25
2019-01-25T06:48:12.688Z,70.90
2019-01-25T06:49:12.662Z,71.36
2019-01-25T06:50:12.652Z,71.25
2019-01-25T06:51:12.647Z,71.15
2019-01-25T06:52:12.636Z,70.83
2019-01-25T06:53:12.637Z,71.01
2019-01-25T06:54:12.616Z,70.28
2019-01-25T06:55:12.597Z,70.90
2019-01-25T06:56:12.586Z,71.43
2019-01-25T06:57:12.579Z,70.69
2019-01-25T06:58:12.582Z,71.53
2019-01-25T06:59:12.558Z,71.67
2019-01-25T07:00:12.541Z,71.78
2019-01-25T07:01:12.533Z,71.11
2019-01-25T07:02:12.522Z,71.11
2019-01-25T07:03:12.533Z,70.69
2019-01-25T07:04:12.532Z,70.80
2019-01-25T07:05:12.511Z,70.80
2019-01-25T07:06:12.479Z,70.90
2019-01-25T07:07:12.471Z,71.01
2019-01-25T07:08:12.478Z,71.11
2019-01-25T07:09:12.451Z,71.01
2019-01-25T07:10:12.441Z,71.01
2019-01-25T07:11:12.425Z,70.69
2019-01-25T07:12:12.418Z,70.59
2019-01-25T07:13:12.426Z,70.69
2019-01-25T07:14:12.403Z,71.01
2019-01-25T07:15:12.391Z,71.11
2019-01-25T07:16:12.382Z,70.90
2019-01-25T07:17:12.370Z,70.90
2019-01-25T07:18:12.411Z,70.28
2019-01-25T07:19:12.340Z,71.11
2019-01-25T07:20:12.339Z,71.22
2019-01-25T07:21:12.327Z,71.01
2019-01-25T07:22:12.313Z,71.22
2019-01-25T07:23:12.310Z,70.80
2019-01-25T07:24:12.281Z,71.36
2019-01-25T07:25:12.278Z,70.38
2019-01-25T07:26:12.261Z,71.01
2019-01-25T07:27:12.274Z,70.48
2019-01-25T07:28:12.257Z,70.83
2019-01-25T07:29:12.247Z,71.01
2019-01-25T07:30:12.230Z,72.30
2019-01-25T07:31:12.420Z,72.30
2019-01-25T07:32:12.205Z,72.41
2019-01-25T07:33:12.206Z,71.98
2019-01-25T07:34:12.203Z,71.98
2019-01-25T07:35:12.169Z,71.98
2019-01-25T07:36:12.174Z,71.88
2019-01-25T07:37:12.159Z,71.67
2019-01-25T07:38:12.165Z,71.78
2019-01-25T07:39:12.126Z,71.36
2019-01-25T07:40:12.115Z,71.04
2019-01-25T07:41:12.293Z,71.25
2019-01-25T07:42:12.094Z,71.56
2019-01-25T07:43:12.097Z,71.98
2019-01-25T07:44:12.072Z,71.85
2019-01-25T07:45:12.062Z,71.95
2019-01-25T07:46:12.058Z,71.78
2019-01-25T07:47:12.052Z,71.36
2019-01-25T07:48:12.051Z,71.11
2019-01-25T07:49:12.029Z,71.22
2019-01-25T07:50:12.141Z,70.83
2019-01-25T07:51:12.011Z,70.28
2019-01-25T07:52:11.992Z,70.48
2019-01-25T07:53:11.998Z,70.62
2019-01-25T07:54:11.976Z,69.89
2019-01-25T07:55:12.022Z,70.41
2019-01-25T07:56:11.948Z,70.20
2019-01-25T07:57:11.948Z,69.89
2019-01-25T07:58:11.964Z,70.20
2019-01-25T07:59:11.919Z,70.73
2019-01-25T08:00:11.953Z,70.51
2019-01-25T08:01:11.903Z,70.94
2019-01-25T08:02:11.888Z,70.09
2019-01-25T08:03:11.884Z,69.57
2019-01-25T08:04:11.893Z,69.68
2019-01-25T08:05:11.850Z,69.68
2019-01-25T08:06:11.868Z,69.68
2019-01-25T08:07:11.829Z,69.68
2019-01-25T08:08:11.842Z,69.57
2019-01-25T08:09:11.825Z,69.78
2019-01-25T08:10:11.806Z,69.99
2019-01-25T08:11:11.793Z,69.89
2019-01-25T08:12:11.784Z,69.57
2019-01-25T08:13:11.784Z,69.68
2019-01-25T08:14:12.880Z,70.09
2019-01-25T08:15:11.843Z,69.89
2019-01-25T08:16:11.787Z,69.89
2019-01-25T08:17:11.780Z,69.75
2019-01-25T08:18:11.780Z,69.46
2019-01-25T08:19:11.704Z,69.43
2019-01-25T08:20:11.695Z,69.85
2019-01-25T08:21:11.686Z,69.85
2019-01-25T08:22:11.679Z,69.96
2019-01-25T08:23:11.690Z,69.75
2019-01-25T08:24:11.682Z,69.68
2019-01-25T08:25:11.661Z,69.64
2019-01-25T08:26:11.677Z,69.75
2019-01-25T08:27:11.645Z,69.75
2019-01-25T08:28:11.631Z,69.64
2019-01-25T08:29:11.793Z,69.64
2019-01-25T08:30:11.645Z,69.54
2019-01-25T08:31:11.598Z,69.93
2019-01-25T08:32:11.573Z,69.71
2019-01-25T08:33:11.563Z,69.82
2019-01-25T08:34:11.590Z,70.14
2019-01-25T08:35:11.564Z,69.85
2019-01-25T08:36:11.534Z,70.35
2019-01-25T08:37:11.586Z,70.48
2019-01-25T08:38:11.540Z,70.14
2019-01-25T08:39:11.553Z,70.76
2019-01-25T08:40:11.493Z,70.24
2019-01-25T08:41:11.479Z,70.87
2019-01-25T08:42:15.716Z,70.76
2019-01-25T08:43:11.623Z,70.66
2019-01-25T08:44:11.466Z,70.56
2019-01-25T08:45:11.430Z,70.35
2019-01-25T08:46:11.423Z,71.19
2019-01-25T08:47:11.427Z,70.98
2019-01-25T08:48:11.417Z,70.98
2019-01-25T08:49:11.401Z,70.98
2019-01-25T08:50:11.390Z,71.19
2019-01-25T08:51:11.679Z,70.76
2019-01-25T08:52:11.360Z,70.56
2019-01-25T08:53:11.399Z,70.98
2019-01-25T08:54:11.358Z,71.08
2019-01-25T08:55:11.333Z,70.76
2019-01-25T08:56:11.316Z,71.40
2019-01-25T08:57:11.307Z,71.50
2019-01-25T08:58:11.301Z,70.98
2019-01-25T08:59:11.415Z,70.98
2019-01-25T09:00:11.277Z,70.87
2019-01-25T09:01:11.266Z,70.76
2019-01-25T09:02:11.255Z,71.05
2019-01-25T09:03:11.246Z,70.53
2019-01-25T09:04:11.242Z,71.05
2019-01-25T09:05:11.525Z,71.08
2019-01-25T09:06:11.216Z,70.63
2019-01-25T09:07:11.198Z,70.73
2019-01-25T09:08:11.192Z,70.31
2019-01-25T09:09:11.189Z,70.73
2019-01-25T09:10:11.167Z,70.63
2019-01-25T09:11:11.154Z,70.42
2019-01-25T09:12:11.144Z,70.50
2019-01-25T09:13:11.133Z,70.60
2019-01-25T09:14:11.132Z,70.18
2019-01-25T09:15:11.112Z,69.31
2019-01-25T09:16:11.103Z,69.20
2019-01-25T09:17:11.089Z,68.78
2019-01-25T09:18:11.076Z,68.68
2019-01-25T09:19:11.088Z,68.68
2019-01-25T09:20:14.581Z,68.57
2019-01-25T09:21:11.043Z,68.99
2019-01-25T09:22:11.033Z,68.57
2019-01-25T09:23:11.024Z,68.68
2019-01-25T09:24:11.027Z,68.89
2019-01-25T09:25:11.005Z,69.10
2019-01-25T09:26:10.991Z,68.89
2019-01-25T09:27:10.982Z,68.47
2019-01-25T09:28:10.975Z,68.26
2019-01-25T09:29:10.987Z,68.37
2019-01-25T09:30:10.947Z,68.37
2019-01-25T09:31:10.937Z,68.57
2019-01-25T09:32:10.926Z,68.57
2019-01-25T09:33:10.915Z,67.84
2019-01-25T09:34:10.917Z,67.52
2019-01-25T09:35:10.895Z,67.52
2019-01-25T09:36:10.944Z,66.89
2019-01-25T09:37:10.878Z,67.03
2019-01-25T09:38:10.865Z,66.30
2019-01-25T09:39:10.866Z,66.47
2019-01-25T09:40:10.901Z,66.93
2019-01-25T09:41:10.840Z,67.32
2019-01-25T09:42:10.828Z,67.00
2019-01-25T09:43:10.828Z,67.00
2019-01-25T09:44:10.818Z,67.21
2019-01-25T09:45:10.787Z,67.00
2019-01-25T09:46:10.787Z,66.79
2019-01-25T09:47:10.770Z,66.89
2019-01-25T09:48:10.763Z,67.21
2019-01-25T09:49:10.773Z,67.00
2019-01-25T09:50:10.746Z,66.79
2019-01-25T09:51:10.733Z,66.79
2019-01-25T09:52:10.723Z,66.79
2019-01-25T09:53:10.714Z,66.89
2019-01-25T09:54:10.713Z,66.79
2019-01-25T09:55:10.690Z,66.76
2019-01-25T09:56:10.678Z,66.58
2019-01-25T09:57:10.673Z,66.89
2019-01-25T09:58:10.659Z,66.03
2019-01-25T09:59:10.668Z,66.55
2019-01-25T10:00:10.633Z,65.37
2019-01-25T10:01:10.622Z,64.29
2019-01-25T10:02:10.616Z,63.95
2019-01-25T10:03:10.602Z,63.71
2019-01-25T10:04:10.603Z,62.66
2019-01-25T10:05:10.581Z,62.43
2019-01-25T10:06:10.570Z,61.90
2019-01-25T10:07:10.560Z,60.31
2019-01-25T10:08:10.543Z,59.58
2019-01-25T10:09:10.546Z,59.05
2019-01-25T10:10:10.527Z,58.71
2019-01-25T10:11:10.516Z,57.98
2019-01-25T10:12:10.504Z,57.25
2019-01-25T10:13:10.489Z,57.35
2019-01-25T10:14:10.498Z,58.09
2019-01-25T10:15:10.469Z,58.32
2019-01-25T10:16:10.460Z,58.14
2019-01-25T10:17:10.448Z,57.28
2019-01-25T10:18:10.441Z,57.28
2019-01-25T10:19:10.439Z,58.95
2019-01-25T10:20:10.420Z,58.35
2019-01-25T10:21:10.404Z,58.35
2019-01-25T10:22:10.395Z,57.59
2019-01-25T10:23:10.382Z,56.18
2019-01-25T10:24:10.385Z,56.68
2019-01-25T10:25:10.360Z,53.99
2019-01-25T10:26:10.352Z,55.16
2019-01-25T10:27:10.337Z,54.66
2019-01-25T10:28:10.330Z,54.77
2019-01-25T10:29:10.327Z,54.61
2019-01-25T10:30:10.308Z,54.53
2019-01-25T10:31:10.294Z,54.97
2019-01-25T10:32:10.287Z,55.08
2019-01-25T10:33:10.273Z,54.53
2019-01-25T10:34:10.276Z,55.08
2019-01-25T10:35:10.252Z,55.94
2019-01-25T10:36:10.243Z,55.87
2019-01-25T10:37:10.233Z,56.36
2019-01-25T10:38:10.225Z,56.31
2019-01-25T10:39:10.222Z,54.82
2019-01-25T10:40:10.211Z,53.73
2019-01-25T10:41:10.196Z,51.46
2019-01-25T10:42:10.192Z,52.16
2019-01-25T10:43:10.174Z,53.65
2019-01-25T10:44:10.173Z,52.23
2019-01-25T10:45:10.150Z,53.91
2019-01-25T10:46:10.137Z,54.01
2019-01-25T10:47:10.120Z,54.93
2019-01-25T10:48:10.112Z,54.51
2019-01-25T10:49:10.118Z,54.51
2019-01-25T10:50:10.088Z,53.72
2019-01-25T10:51:10.078Z,54.56
2019-01-25T10:52:10.065Z,54.87
2019-01-25T10:53:10.056Z,54.66
2019-01-25T10:54:10.062Z,54.97
2019-01-25T10:55:10.033Z,55.81
2019-01-25T10:56:10.022Z,54.97
2019-01-25T10:57:10.018Z,55.26
2019-01-25T10:58:10.002Z,56.10
2019-01-25T10:59:10.002Z,54.85
2019-01-25T11:00:09.981Z,54.93
2019-01-25T11:01:10.019Z,55.24
2019-01-25T11:02:09.958Z,54.93
2019-01-25T11:03:09.950Z,55.32
2019-01-25T11:04:11.662Z,54.38
2019-01-25T11:05:09.934Z,54.90
2019-01-25T11:06:09.918Z,53.55
2019-01-25T11:07:09.906Z,52.26
2019-01-25T11:08:09.900Z,52.58
2019-01-25T11:09:09.886Z,52.58
2019-01-25T11:10:09.897Z,52.26
2019-01-25T11:11:09.861Z,52.58
2019-01-25T11:12:09.860Z,51.95
2019-01-25T11:13:09.840Z,52.39
2019-01-25T11:14:09.852Z,53.02
2019-01-25T11:15:09.833Z,52.19
2019-01-25T11:16:11.906Z,52.19
2019-01-25T11:17:09.803Z,52.61
2019-01-25T11:18:09.783Z,51.77
2019-01-25T11:19:09.777Z,51.56
2019-01-25T11:20:09.775Z,51.06
2019-01-25T11:21:11.296Z,51.48
2019-01-25T11:22:09.746Z,52.42
2019-01-25T11:23:09.732Z,51.48
2019-01-25T11:24:09.722Z,52.23
2019-01-25T11:25:09.726Z,51.92
2019-01-25T11:26:09.700Z,51.50
2019-01-25T11:27:09.694Z,51.72
2019-01-25T11:28:09.696Z,52.34
2019-01-25T11:29:09.676Z,52.55
2019-01-25T11:30:09.675Z,52.47
2019-01-25T11:31:09.650Z,52.99
2019-01-25T11:32:09.639Z,51.32
2019-01-25T11:33:09.630Z,51.84
2019-01-25T11:34:09.614Z,52.36
2019-01-25T11:35:09.631Z,53.93
2019-01-25T11:36:09.599Z,52.15
2019-01-25T11:37:09.588Z,51.84
2019-01-25T11:38:09.574Z,52.49
2019-01-25T11:39:09.564Z,51.76
2019-01-25T11:40:09.572Z,52.59
2019-01-25T11:41:09.542Z,52.70
2019-01-25T11:42:09.529Z,52.49
2019-01-25T11:43:09.524Z,52.39
2019-01-25T11:44:09.507Z,52.28
2019-01-25T11:45:09.506Z,52.81
2019-01-25T11:46:09.482Z,52.70
2019-01-25T11:47:09.472Z,52.18
2019-01-25T11:48:09.464Z,53.64
2019-01-25T11:49:09.450Z,53.12
2019-01-25T11:50:09.450Z,52.59
2019-01-25T11:51:09.429Z,52.49
2019-01-25T11:52:09.418Z,52.15
2019-01-25T11:53:09.406Z,51.95
2019-01-25T11:54:09.397Z,51.73
2019-01-25T11:55:09.402Z,51.84
2019-01-25T11:56:09.381Z,51.73
2019-01-25T11:57:09.363Z,51.73
2019-01-25T11:58:09.353Z,51.01
2019-01-25T11:59:09.343Z,51.01
2019-01-25T12:00:09.344Z,50.69
2019-01-25T12:01:09.320Z,50.61
2019-01-25T12:02:09.317Z,51.13
2019-01-25T12:03:09.299Z,50.40
2019-01-25T12:04:09.289Z,50.71
2019-01-25T12:05:09.290Z,51.24
2019-01-25T12:06:09.267Z,51.55
2019-01-25T12:07:09.255Z,51.65
2019-01-25T12:08:09.247Z,51.97
2019-01-25T12:09:09.235Z,51.34
2019-01-25T12:10:09.241Z,52.10
2019-01-25T12:11:09.213Z,51.45
2019-01-25T12:12:09.202Z,51.65
2019-01-25T12:13:15.847Z,51.57
2019-01-25T12:14:10.178Z,52.20
2019-01-25T12:15:09.183Z,52.10
2019-01-25T12:16:09.159Z,52.72
2019-01-25T12:17:09.149Z,53.45
2019-01-25T12:18:09.138Z,52.54
2019-01-25T12:19:09.143Z,53.90
2019-01-25T12:20:09.126Z,53.48
2019-01-25T12:21:09.111Z,53.80
2019-01-25T12:22:09.097Z,54.00
2019-01-25T12:23:09.086Z,54.11
2019-01-25T12:24:09.077Z,54.84
2019-01-25T12:25:09.073Z,54.74
2019-01-25T12:26:09.050Z,54.94
2019-01-25T12:27:09.041Z,54.74
2019-01-25T12:28:09.032Z,54.74
2019-01-25T12:29:09.018Z,54.94
2019-01-25T12:30:09.034Z,55.47
2019-01-25T12:31:09.000Z,55.36
2019-01-25T12:32:08.987Z,56.10
2019-01-25T12:33:08.977Z,54.63
2019-01-25T12:34:08.966Z,55.47
2019-01-25T12:35:08.974Z,54.94
2019-01-25T12:36:08.953Z,56.20
2019-01-25T12:37:08.934Z,55.16
2019-01-25T12:38:08.922Z,56.44
2019-01-25T12:39:08.990Z,56.85
2019-01-25T12:40:08.917Z,56.52
2019-01-25T12:41:08.895Z,56.20
2019-01-25T12:42:08.883Z,56.30
2019-01-25T12:43:08.871Z,56.52
2019-01-25T12:44:08.857Z,56.83
2019-01-25T12:45:08.865Z,57.25
2019-01-25T12:46:08.839Z,56.96
2019-01-25T12:47:08.830Z,57.56
2019-01-25T12:48:08.814Z,56.93
2019-01-25T12:49:08.803Z,56.93
2019-01-25T12:50:08.813Z,56.30
2019-01-25T12:51:08.784Z,57.15
2019-01-25T12:52:08.772Z,57.15